sensor_id;sensor_type;location;lat;lon;timestamp;temperature;humidity
33699;DHT22;20032;52.436;13.312;2024-02-23T00:01:28;10.90;99.90
33699;DHT22;20032;52.436;13.312;2024-02-23T00:03:53;10.90;99.90
33699;DHT22;20032;52.436;13.312;2024-02-23T00:06:20;10.90;99.90
33699;DHT22;20032;52.436;13.312;2024-02-23T00:08:46;10.90;99.90
33699;DHT22;20032;52.436;13.312;2024-02-23T00:11:11;10.90;99.90
33699;DHT22;20032;52.436;13.312;2024-02-23T00:13:37;11.00;99.90
33699;DHT22;20032;52.436;13.312;2024-02-23T00:16:03;11.00;99.90
33699;DHT22;20032;52.436;13.312;2024-02-23T00:18:28;11.00;99.90
33699;DHT22;20032;52.436;13.312;2024-02-23T00:20:54;11.00;99.90
33699;DHT22;20032;52.436;13.312;2024-02-23T00:23:19;11.00;99.90
33699;DHT22;20032;52.436;13.312;2024-02-23T00:25:45;11.00;99.90
33699;DHT22;20032;52.436;13.312;2024-02-23T00:28:11;11.00;99.90
33699;DHT22;20032;52.436;13.312;2024-02-23T00:30:37;11.10;99.90
33699;DHT22;20032;52.436;13.312;2024-02-23T00:33:03;11.10;99.90
33699;DHT22;20032;52.436;13.312;2024-02-23T00:35:29;11.00;99.90
33699;DHT22;20032;52.436;13.312;2024-02-23T00:37:54;11.00;99.90
33699;DHT22;20032;52.436;13.312;2024-02-23T00:40:19;11.00;99.90
33699;DHT22;20032;52.436;13.312;2024-02-23T00:42:46;11.00;99.90
33699;DHT22;20032;52.436;13.312;2024-02-23T00:45:11;10.90;99.90
33699;DHT22;20032;52.436;13.312;2024-02-23T00:47:37;10.90;99.90
33699;DHT22;20032;52.436;13.312;2024-02-23T00:50:03;11.00;99.90
33699;DHT22;20032;52.436;13.312;2024-02-23T00:52:30;11.00;99.90
33699;DHT22;20032;52.436;13.312;2024-02-23T00:54:55;11.00;99.90
33699;DHT22;20032;52.436;13.312;2024-02-23T00:57:21;11.00;99.90
33699;DHT22;20032;52.436;13.312;2024-02-23T00:59:52;11.00;99.90
33699;DHT22;20032;52.436;13.312;2024-02-23T01:02:18;11.00;99.90
33699;DHT22;20032;52.436;13.312;2024-02-23T01:04:43;11.00;99.90
33699;DHT22;20032;52.436;13.312;2024-02-23T01:07:09;11.00;99.90
33699;DHT22;20032;52.436;13.312;2024-02-23T01:09:35;11.10;99.90
33699;DHT22;20032;52.436;13.312;2024-02-23T01:12:00;11.10;99.90
33699;DHT22;20032;52.436;13.312;2024-02-23T01:14:26;11.10;99.90
33699;DHT22;20032;52.436;13.312;2024-02-23T01:16:51;11.20;99.90
33699;DHT22;20032;52.436;13.312;2024-02-23T01:19:17;11.20;99.90
33699;DHT22;20032;52.436;13.312;2024-02-23T01:21:43;11.20;99.90
33699;DHT22;20032;52.436;13.312;2024-02-23T01:24:09;11.20;99.90
33699;DHT22;20032;52.436;13.312;2024-02-23T01:26:34;11.20;99.90
33699;DHT22;20032;52.436;13.312;2024-02-23T01:29:00;11.30;99.90
33699;DHT22;20032;52.436;13.312;2024-02-23T01:31:25;11.30;99.90
33699;DHT22;20032;52.436;13.312;2024-02-23T01:33:51;11.40;99.90
33699;DHT22;20032;52.436;13.312;2024-02-23T01:36:16;11.40;99.90
33699;DHT22;20032;52.436;13.312;2024-02-23T01:38:44;11.40;99.90
33699;DHT22;20032;52.436;13.312;2024-02-23T01:41:10;11.40;99.90
33699;DHT22;20032;52.436;13.312;2024-02-23T01:43:37;11.40;99.90
33699;DHT22;20032;52.436;13.312;2024-02-23T01:46:03;11.40;99.90
33699;DHT22;20032;52.436;13.312;2024-02-23T01:48:30;11.50;99.90
33699;DHT22;20032;52.436;13.312;2024-02-23T01:50:55;11.50;99.90
33699;DHT22;20032;52.436;13.312;2024-02-23T01:53:22;11.50;99.90
33699;DHT22;20032;52.436;13.312;2024-02-23T01:55:48;11.40;99.90
33699;DHT22;20032;52.436;13.312;2024-02-23T01:58:14;11.50;99.90
33699;DHT22;20032;52.436;13.312;2024-02-23T02:00:40;11.60;99.90
33699;DHT22;20032;52.436;13.312;2024-02-23T02:03:05;11.60;99.90
33699;DHT22;20032;52.436;13.312;2024-02-23T02:05:31;11.60;99.90
33699;DHT22;20032;52.436;13.312;2024-02-23T02:07:57;11.60;99.90
33699;DHT22;20032;52.436;13.312;2024-02-23T02:10:24;11.50;99.90
33699;DHT22;20032;52.436;13.312;2024-02-23T02:12:50;11.50;99.90
33699;DHT22;20032;52.436;13.312;2024-02-23T02:15:16;11.40;99.90
33699;DHT22;20032;52.436;13.312;2024-02-23T02:17:41;11.30;99.90
33699;DHT22;20032;52.436;13.312;2024-02-23T02:20:11;11.30;99.90
33699;DHT22;20032;52.436;13.312;2024-02-23T02:22:37;11.20;99.90
33699;DHT22;20032;52.436;13.312;2024-02-23T02:25:02;11.10;99.90
33699;DHT22;20032;52.436;13.312;2024-02-23T02:27:28;11.00;99.90
33699;DHT22;20032;52.436;13.312;2024-02-23T02:29:54;11.00;99.90
33699;DHT22;20032;52.436;13.312;2024-02-23T02:32:19;10.90;99.90
33699;DHT22;20032;52.436;13.312;2024-02-23T02:34:45;10.90;99.90
33699;DHT22;20032;52.436;13.312;2024-02-23T02:37:10;10.80;99.90
33699;DHT22;20032;52.436;13.312;2024-02-23T02:39:36;10.80;99.90
33699;DHT22;20032;52.436;13.312;2024-02-23T02:42:01;10.80;99.90
33699;DHT22;20032;52.436;13.312;2024-02-23T02:44:27;10.70;99.90
33699;DHT22;20032;52.436;13.312;2024-02-23T02:46:56;10.60;99.90
33699;DHT22;20032;52.436;13.312;2024-02-23T02:49:22;10.60;99.90
33699;DHT22;20032;52.436;13.312;2024-02-23T02:51:47;10.60;99.90
33699;DHT22;20032;52.436;13.312;2024-02-23T02:54:13;10.60;99.90
33699;DHT22;20032;52.436;13.312;2024-02-23T02:56:47;10.50;99.90
33699;DHT22;20032;52.436;13.312;2024-02-23T02:59:13;10.50;99.90
33699;DHT22;20032;52.436;13.312;2024-02-23T03:01:39;10.50;99.90
33699;DHT22;20032;52.436;13.312;2024-02-23T03:04:04;10.40;99.90
33699;DHT22;20032;52.436;13.312;2024-02-23T03:06:30;10.40;99.90
33699;DHT22;20032;52.436;13.312;2024-02-23T03:08:56;10.40;99.90
33699;DHT22;20032;52.436;13.312;2024-02-23T03:11:21;10.40;99.90
33699;DHT22;20032;52.436;13.312;2024-02-23T03:13:46;10.40;99.90
33699;DHT22;20032;52.436;13.312;2024-02-23T03:16:20;10.30;99.90
33699;DHT22;20032;52.436;13.312;2024-02-23T03:18:48;10.30;99.90
33699;DHT22;20032;52.436;13.312;2024-02-23T03:21:14;10.30;99.90
33699;DHT22;20032;52.436;13.312;2024-02-23T03:23:40;10.20;99.90
33699;DHT22;20032;52.436;13.312;2024-02-23T03:26:07;10.20;99.90
33699;DHT22;20032;52.436;13.312;2024-02-23T03:28:33;10.20;99.90
33699;DHT22;20032;52.436;13.312;2024-02-23T03:31:00;10.20;99.90
33699;DHT22;20032;52.436;13.312;2024-02-23T03:33:26;10.20;99.90
33699;DHT22;20032;52.436;13.312;2024-02-23T03:35:52;10.20;99.90
33699;DHT22;20032;52.436;13.312;2024-02-23T03:38:17;10.20;99.90
33699;DHT22;20032;52.436;13.312;2024-02-23T03:40:43;10.20;99.90
33699;DHT22;20032;52.436;13.312;2024-02-23T03:43:08;10.20;99.90
33699;DHT22;20032;52.436;13.312;2024-02-23T03:45:34;10.10;99.90
33699;DHT22;20032;52.436;13.312;2024-02-23T03:48:00;10.10;99.90
33699;DHT22;20032;52.436;13.312;2024-02-23T03:50:26;10.10;99.90
33699;DHT22;20032;52.436;13.312;2024-02-23T03:52:52;10.10;99.90
33699;DHT22;20032;52.436;13.312;2024-02-23T03:55:17;10.00;99.90
33699;DHT22;20032;52.436;13.312;2024-02-23T03:57:43;10.00;99.90
33699;DHT22;20032;52.436;13.312;2024-02-23T04:02:35;10.00;99.90
33699;DHT22;20032;52.436;13.312;2024-02-23T04:05:00;10.00;99.90
33699;DHT22;20032;52.436;13.312;2024-02-23T04:07:26;9.90;99.90
33699;DHT22;20032;52.436;13.312;2024-02-23T04:09:53;9.90;99.90
33699;DHT22;20032;52.436;13.312;2024-02-23T04:12:20;9.90;99.90
33699;DHT22;20032;52.436;13.312;2024-02-23T04:14:46;9.90;99.90
33699;DHT22;20032;52.436;13.312;2024-02-23T04:17:12;9.80;99.90
33699;DHT22;20032;52.436;13.312;2024-02-23T04:19:37;9.80;99.90
33699;DHT22;20032;52.436;13.312;2024-02-23T04:22:05;9.80;99.90
33699;DHT22;20032;52.436;13.312;2024-02-23T04:24:31;9.80;99.90
33699;DHT22;20032;52.436;13.312;2024-02-23T04:26:56;9.80;99.90
33699;DHT22;20032;52.436;13.312;2024-02-23T04:29:22;9.80;99.90
33699;DHT22;20032;52.436;13.312;2024-02-23T04:31:47;9.70;99.90
33699;DHT22;20032;52.436;13.312;2024-02-23T04:34:15;9.70;99.90
33699;DHT22;20032;52.436;13.312;2024-02-23T04:36:41;9.60;99.90
33699;DHT22;20032;52.436;13.312;2024-02-23T04:39:07;9.60;99.90
33699;DHT22;20032;52.436;13.312;2024-02-23T04:41:33;9.60;99.90
33699;DHT22;20032;52.436;13.312;2024-02-23T04:43:58;9.60;99.90
33699;DHT22;20032;52.436;13.312;2024-02-23T04:46:26;9.60;99.90
33699;DHT22;20032;52.436;13.312;2024-02-23T04:48:52;9.60;99.90
33699;DHT22;20032;52.436;13.312;2024-02-23T04:51:18;9.50;99.90
33699;DHT22;20032;52.436;13.312;2024-02-23T04:53:44;9.50;99.90
33699;DHT22;20032;52.436;13.312;2024-02-23T04:56:09;9.40;99.90
33699;DHT22;20032;52.436;13.312;2024-02-23T04:58:35;9.40;99.90
33699;DHT22;20032;52.436;13.312;2024-02-23T05:01:00;9.40;99.90
33699;DHT22;20032;52.436;13.312;2024-02-23T05:03:26;9.40;99.90
33699;DHT22;20032;52.436;13.312;2024-02-23T05:05:52;9.40;99.90
33699;DHT22;20032;52.436;13.312;2024-02-23T05:08:22;9.40;99.90
33699;DHT22;20032;52.436;13.312;2024-02-23T05:10:50;9.30;99.90
33699;DHT22;20032;52.436;13.312;2024-02-23T05:13:16;9.30;99.90
33699;DHT22;20032;52.436;13.312;2024-02-23T05:15:42;9.30;99.90
33699;DHT22;20032;52.436;13.312;2024-02-23T05:18:07;9.30;99.90
33699;DHT22;20032;52.436;13.312;2024-02-23T05:20:32;9.20;99.90
33699;DHT22;20032;52.436;13.312;2024-02-23T05:22:58;9.20;99.90
33699;DHT22;20032;52.436;13.312;2024-02-23T05:25:23;9.10;99.90
33699;DHT22;20032;52.436;13.312;2024-02-23T05:27:51;9.00;99.90
33699;DHT22;20032;52.436;13.312;2024-02-23T05:30:16;8.90;99.90
33699;DHT22;20032;52.436;13.312;2024-02-23T05:32:43;8.90;99.90
33699;DHT22;20032;52.436;13.312;2024-02-23T05:35:09;8.80;99.90
33699;DHT22;20032;52.436;13.312;2024-02-23T05:37:35;8.70;99.90
33699;DHT22;20032;52.436;13.312;2024-02-23T05:40:01;8.70;99.90
33699;DHT22;20032;52.436;13.312;2024-02-23T05:42:29;8.60;99.90
33699;DHT22;20032;52.436;13.312;2024-02-23T05:44:55;8.60;99.90
33699;DHT22;20032;52.436;13.312;2024-02-23T05:47:20;8.50;99.90
33699;DHT22;20032;52.436;13.312;2024-02-23T05:49:47;8.50;99.90
33699;DHT22;20032;52.436;13.312;2024-02-23T05:52:12;8.50;99.90
33699;DHT22;20032;52.436;13.312;2024-02-23T05:54:39;8.40;99.90
33699;DHT22;20032;52.436;13.312;2024-02-23T05:57:04;8.40;99.90
33699;DHT22;20032;52.436;13.312;2024-02-23T05:59:30;8.40;99.90
33699;DHT22;20032;52.436;13.312;2024-02-23T06:01:55;8.40;99.90
33699;DHT22;20032;52.436;13.312;2024-02-23T06:04:23;8.30;99.90
33699;DHT22;20032;52.436;13.312;2024-02-23T06:06:49;8.40;99.90
33699;DHT22;20032;52.436;13.312;2024-02-23T06:09:14;8.30;99.90
33699;DHT22;20032;52.436;13.312;2024-02-23T06:11:41;8.30;99.90
33699;DHT22;20032;52.436;13.312;2024-02-23T06:14:07;8.30;99.90
33699;DHT22;20032;52.436;13.312;2024-02-23T06:16:33;8.30;99.90
33699;DHT22;20032;52.436;13.312;2024-02-23T06:18:59;8.30;99.90
33699;DHT22;20032;52.436;13.312;2024-02-23T06:21:24;8.20;99.90
33699;DHT22;20032;52.436;13.312;2024-02-23T06:23:50;8.20;99.90
33699;DHT22;20032;52.436;13.312;2024-02-23T06:26:15;8.20;99.90
33699;DHT22;20032;52.436;13.312;2024-02-23T06:28:41;8.20;99.90
33699;DHT22;20032;52.436;13.312;2024-02-23T06:31:08;8.10;99.90
33699;DHT22;20032;52.436;13.312;2024-02-23T06:33:34;8.10;99.90
33699;DHT22;20032;52.436;13.312;2024-02-23T06:36:00;8.10;99.90
33699;DHT22;20032;52.436;13.312;2024-02-23T06:38:26;8.10;99.90
33699;DHT22;20032;52.436;13.312;2024-02-23T06:40:52;8.10;99.90
33699;DHT22;20032;52.436;13.312;2024-02-23T06:43:18;8.10;99.90
33699;DHT22;20032;52.436;13.312;2024-02-23T06:45:45;8.10;99.90
33699;DHT22;20032;52.436;13.312;2024-02-23T06:48:13;8.10;99.90
33699;DHT22;20032;52.436;13.312;2024-02-23T06:50:39;8.10;99.90
33699;DHT22;20032;52.436;13.312;2024-02-23T06:53:04;8.10;99.90
33699;DHT22;20032;52.436;13.312;2024-02-23T06:55:33;8.20;99.90
33699;DHT22;20032;52.436;13.312;2024-02-23T06:58:00;8.20;99.90
33699;DHT22;20032;52.436;13.312;2024-02-23T07:00:26;8.30;99.90
33699;DHT22;20032;52.436;13.312;2024-02-23T07:02:51;8.30;99.90
33699;DHT22;20032;52.436;13.312;2024-02-23T07:05:17;8.30;99.90
33699;DHT22;20032;52.436;13.312;2024-02-23T07:07:44;8.30;99.90
33699;DHT22;20032;52.436;13.312;2024-02-23T07:10:10;8.30;99.90
33699;DHT22;20032;52.436;13.312;2024-02-23T07:12:37;8.40;99.90
33699;DHT22;20032;52.436;13.312;2024-02-23T07:15:03;8.40;99.90
33699;DHT22;20032;52.436;13.312;2024-02-23T07:17:28;8.30;99.90
33699;DHT22;20032;52.436;13.312;2024-02-23T07:19:54;8.30;99.90
33699;DHT22;20032;52.436;13.312;2024-02-23T07:22:26;8.30;99.90
33699;DHT22;20032;52.436;13.312;2024-02-23T07:24:52;8.30;99.90
33699;DHT22;20032;52.436;13.312;2024-02-23T07:27:18;8.20;99.90
33699;DHT22;20032;52.436;13.312;2024-02-23T07:29:43;8.20;99.90
33699;DHT22;20032;52.436;13.312;2024-02-23T07:32:09;8.20;99.90
33699;DHT22;20032;52.436;13.312;2024-02-23T07:34:35;8.10;99.90
33699;DHT22;20032;52.436;13.312;2024-02-23T07:37:01;8.20;99.90
33699;DHT22;20032;52.436;13.312;2024-02-23T07:39:26;8.20;99.90
33699;DHT22;20032;52.436;13.312;2024-02-23T07:41:52;8.20;99.90
33699;DHT22;20032;52.436;13.312;2024-02-23T07:44:18;8.30;99.90
33699;DHT22;20032;52.436;13.312;2024-02-23T07:46:43;8.30;99.90
33699;DHT22;20032;52.436;13.312;2024-02-23T07:49:09;8.20;99.90
33699;DHT22;20032;52.436;13.312;2024-02-23T07:51:35;8.30;99.90
33699;DHT22;20032;52.436;13.312;2024-02-23T07:54:01;8.30;99.90
33699;DHT22;20032;52.436;13.312;2024-02-23T07:56:27;8.40;99.90
33699;DHT22;20032;52.436;13.312;2024-02-23T07:58:53;8.40;99.90
33699;DHT22;20032;52.436;13.312;2024-02-23T08:01:19;8.40;99.90
33699;DHT22;20032;52.436;13.312;2024-02-23T08:03:44;8.50;99.90
33699;DHT22;20032;52.436;13.312;2024-02-23T08:06:10;8.70;99.90
33699;DHT22;20032;52.436;13.312;2024-02-23T08:08:35;8.70;99.90
33699;DHT22;20032;52.436;13.312;2024-02-23T08:11:02;8.80;99.90
33699;DHT22;20032;52.436;13.312;2024-02-23T08:13:27;8.90;99.90
33699;DHT22;20032;52.436;13.312;2024-02-23T08:15:53;9.00;99.90
33699;DHT22;20032;52.436;13.312;2024-02-23T08:18:19;9.10;99.90
33699;DHT22;20032;52.436;13.312;2024-02-23T08:20:44;9.10;99.90
33699;DHT22;20032;52.436;13.312;2024-02-23T08:23:10;9.20;99.90
33699;DHT22;20032;52.436;13.312;2024-02-23T08:25:36;9.20;99.90
33699;DHT22;20032;52.436;13.312;2024-02-23T08:28:02;9.00;99.90
33699;DHT22;20032;52.436;13.312;2024-02-23T08:30:28;8.90;99.90
33699;DHT22;20032;52.436;13.312;2024-02-23T08:32:53;9.00;99.90
33699;DHT22;20032;52.436;13.312;2024-02-23T08:35:20;8.90;99.90
33699;DHT22;20032;52.436;13.312;2024-02-23T08:37:45;8.90;99.90
33699;DHT22;20032;52.436;13.312;2024-02-23T08:40:11;9.00;99.90
33699;DHT22;20032;52.436;13.312;2024-02-23T08:42:37;8.90;99.90
33699;DHT22;20032;52.436;13.312;2024-02-23T08:45:03;9.00;99.90
33699;DHT22;20032;52.436;13.312;2024-02-23T08:47:30;9.00;99.90
33699;DHT22;20032;52.436;13.312;2024-02-23T08:49:59;9.00;99.90
33699;DHT22;20032;52.436;13.312;2024-02-23T08:52:24;9.10;99.90
33699;DHT22;20032;52.436;13.312;2024-02-23T08:54:51;9.10;99.90
33699;DHT22;20032;52.436;13.312;2024-02-23T08:57:19;9.10;99.90
33699;DHT22;20032;52.436;13.312;2024-02-23T08:59:46;9.00;99.90
33699;DHT22;20032;52.436;13.312;2024-02-23T09:02:12;9.10;99.90
33699;DHT22;20032;52.436;13.312;2024-02-23T09:04:38;9.00;99.90
33699;DHT22;20032;52.436;13.312;2024-02-23T09:07:03;9.10;99.90
33699;DHT22;20032;52.436;13.312;2024-02-23T09:09:29;9.20;99.90
33699;DHT22;20032;52.436;13.312;2024-02-23T09:11:55;9.20;99.90
33699;DHT22;20032;52.436;13.312;2024-02-23T09:14:21;9.40;99.90
33699;DHT22;20032;52.436;13.312;2024-02-23T09:16:46;9.40;99.90
33699;DHT22;20032;52.436;13.312;2024-02-23T09:19:16;9.40;99.90
33699;DHT22;20032;52.436;13.312;2024-02-23T09:21:41;9.50;99.90
33699;DHT22;20032;52.436;13.312;2024-02-23T09:24:07;9.60;99.90
33699;DHT22;20032;52.436;13.312;2024-02-23T09:26:33;9.60;99.90
33699;DHT22;20032;52.436;13.312;2024-02-23T09:28:58;9.70;99.90
33699;DHT22;20032;52.436;13.312;2024-02-23T09:31:24;9.80;99.90
33699;DHT22;20032;52.436;13.312;2024-02-23T09:33:49;9.90;99.90
33699;DHT22;20032;52.436;13.312;2024-02-23T09:36:17;10.00;99.90
33699;DHT22;20032;52.436;13.312;2024-02-23T09:38:43;10.10;99.90
33699;DHT22;20032;52.436;13.312;2024-02-23T09:41:21;9.90;99.90
33699;DHT22;20032;52.436;13.312;2024-02-23T09:43:48;9.80;99.90
33699;DHT22;20032;52.436;13.312;2024-02-23T09:46:15;9.80;99.90
33699;DHT22;20032;52.436;13.312;2024-02-23T09:48:43;9.60;99.90
33699;DHT22;20032;52.436;13.312;2024-02-23T09:51:10;9.70;99.90
33699;DHT22;20032;52.436;13.312;2024-02-23T09:53:38;9.80;99.90
33699;DHT22;20032;52.436;13.312;2024-02-23T09:56:04;9.90;99.90
33699;DHT22;20032;52.436;13.312;2024-02-23T09:58:34;10.00;99.90
33699;DHT22;20032;52.436;13.312;2024-02-23T10:01:03;10.10;99.90
33699;DHT22;20032;52.436;13.312;2024-02-23T10:03:29;10.30;99.90
33699;DHT22;20032;52.436;13.312;2024-02-23T10:05:56;10.40;99.90
33699;DHT22;20032;52.436;13.312;2024-02-23T10:08:23;10.40;99.90
33699;DHT22;20032;52.436;13.312;2024-02-23T10:10:48;10.20;99.90
33699;DHT22;20032;52.436;13.312;2024-02-23T10:13:23;10.20;99.90
33699;DHT22;20032;52.436;13.312;2024-02-23T10:15:53;10.10;99.90
33699;DHT22;20032;52.436;13.312;2024-02-23T10:18:19;10.00;99.90
33699;DHT22;20032;52.436;13.312;2024-02-23T10:20:46;10.00;99.90
33699;DHT22;20032;52.436;13.312;2024-02-23T10:23:12;9.80;99.90
33699;DHT22;20032;52.436;13.312;2024-02-23T10:25:37;9.90;99.90
33699;DHT22;20032;52.436;13.312;2024-02-23T10:28:07;10.00;99.90
33699;DHT22;20032;52.436;13.312;2024-02-23T10:30:33;10.00;99.90
33699;DHT22;20032;52.436;13.312;2024-02-23T10:32:59;10.20;99.90
33699;DHT22;20032;52.436;13.312;2024-02-23T10:35:25;10.20;99.90
33699;DHT22;20032;52.436;13.312;2024-02-23T10:37:53;10.30;99.90
33699;DHT22;20032;52.436;13.312;2024-02-23T10:40:20;10.30;99.90
33699;DHT22;20032;52.436;13.312;2024-02-23T10:42:48;10.40;99.90
33699;DHT22;20032;52.436;13.312;2024-02-23T10:45:19;10.40;99.90
33699;DHT22;20032;52.436;13.312;2024-02-23T10:47:47;10.30;99.90
33699;DHT22;20032;52.436;13.312;2024-02-23T10:50:14;10.40;99.90
33699;DHT22;20032;52.436;13.312;2024-02-23T10:52:42;10.50;99.90
33699;DHT22;20032;52.436;13.312;2024-02-23T10:55:09;10.70;99.90
33699;DHT22;20032;52.436;13.312;2024-02-23T10:57:35;10.60;99.90
33699;DHT22;20032;52.436;13.312;2024-02-23T11:00:02;10.70;99.90
33699;DHT22;20032;52.436;13.312;2024-02-23T11:02:32;10.70;99.90
33699;DHT22;20032;52.436;13.312;2024-02-23T11:05:01;10.70;99.90
33699;DHT22;20032;52.436;13.312;2024-02-23T11:07:30;10.60;99.90
33699;DHT22;20032;52.436;13.312;2024-02-23T11:09:59;10.30;99.90
33699;DHT22;20032;52.436;13.312;2024-02-23T11:12:29;10.50;99.90
33699;DHT22;20032;52.436;13.312;2024-02-23T11:14:59;10.50;99.90
33699;DHT22;20032;52.436;13.312;2024-02-23T11:17:27;10.60;99.90
33699;DHT22;20032;52.436;13.312;2024-02-23T11:19:54;10.60;99.90
33699;DHT22;20032;52.436;13.312;2024-02-23T11:22:31;10.60;99.90
33699;DHT22;20032;52.436;13.312;2024-02-23T11:25:00;10.80;99.90
33699;DHT22;20032;52.436;13.312;2024-02-23T11:27:31;10.70;99.90
33699;DHT22;20032;52.436;13.312;2024-02-23T11:30:05;10.80;99.90
33699;DHT22;20032;52.436;13.312;2024-02-23T11:35:07;10.70;99.90
33699;DHT22;20032;52.436;13.312;2024-02-23T11:37:51;10.70;99.90
33699;DHT22;20032;52.436;13.312;2024-02-23T11:40:22;11.00;99.90
33699;DHT22;20032;52.436;13.312;2024-02-23T11:42:48;10.90;99.90
33699;DHT22;20032;52.436;13.312;2024-02-23T11:45:13;10.80;99.90
33699;DHT22;20032;52.436;13.312;2024-02-23T11:47:39;10.80;99.90
33699;DHT22;20032;52.436;13.312;2024-02-23T11:50:09;10.60;99.90
33699;DHT22;20032;52.436;13.312;2024-02-23T11:52:37;10.70;99.90
33699;DHT22;20032;52.436;13.312;2024-02-23T11:55:03;10.70;99.90
33699;DHT22;20032;52.436;13.312;2024-02-23T11:57:31;10.80;99.90
33699;DHT22;20032;52.436;13.312;2024-02-23T11:59:58;11.00;99.90
33699;DHT22;20032;52.436;13.312;2024-02-23T12:02:24;11.20;99.90
33699;DHT22;20032;52.436;13.312;2024-02-23T12:04:50;11.30;99.90
33699;DHT22;20032;52.436;13.312;2024-02-23T12:07:16;11.30;99.90
33699;DHT22;20032;52.436;13.312;2024-02-23T12:09:42;11.40;99.90
33699;DHT22;20032;52.436;13.312;2024-02-23T12:12:09;11.30;99.90
33699;DHT22;20032;52.436;13.312;2024-02-23T12:14:36;11.50;99.90
33699;DHT22;20032;52.436;13.312;2024-02-23T12:17:02;11.40;99.90
33699;DHT22;20032;52.436;13.312;2024-02-23T12:19:29;11.40;99.90
33699;DHT22;20032;52.436;13.312;2024-02-23T12:22:00;11.60;99.90
33699;DHT22;20032;52.436;13.312;2024-02-23T12:24:26;11.70;99.90
33699;DHT22;20032;52.436;13.312;2024-02-23T12:26:54;11.60;99.90
33699;DHT22;20032;52.436;13.312;2024-02-23T12:29:20;11.40;99.90
33699;DHT22;20032;52.436;13.312;2024-02-23T12:31:46;11.20;99.90
33699;DHT22;20032;52.436;13.312;2024-02-23T12:34:11;11.10;99.90
33699;DHT22;20032;52.436;13.312;2024-02-23T12:36:39;11.00;99.90
33699;DHT22;20032;52.436;13.312;2024-02-23T12:39:04;11.10;99.90
33699;DHT22;20032;52.436;13.312;2024-02-23T12:41:31;11.10;99.90
33699;DHT22;20032;52.436;13.312;2024-02-23T12:43:56;11.20;99.90
33699;DHT22;20032;52.436;13.312;2024-02-23T12:46:22;11.00;99.90
33699;DHT22;20032;52.436;13.312;2024-02-23T12:48:49;11.10;99.90
33699;DHT22;20032;52.436;13.312;2024-02-23T12:51:15;11.20;99.90
33699;DHT22;20032;52.436;13.312;2024-02-23T12:53:41;11.20;99.90
33699;DHT22;20032;52.436;13.312;2024-02-23T12:56:08;11.20;99.90
33699;DHT22;20032;52.436;13.312;2024-02-23T12:58:36;11.20;99.90
33699;DHT22;20032;52.436;13.312;2024-02-23T13:01:01;11.20;99.90
33699;DHT22;20032;52.436;13.312;2024-02-23T13:03:28;11.10;99.90
33699;DHT22;20032;52.436;13.312;2024-02-23T13:05:55;11.10;99.90
33699;DHT22;20032;52.436;13.312;2024-02-23T13:08:21;10.90;99.90
33699;DHT22;20032;52.436;13.312;2024-02-23T13:10:47;10.70;99.90
33699;DHT22;20032;52.436;13.312;2024-02-23T13:13:13;10.70;99.90
33699;DHT22;20032;52.436;13.312;2024-02-23T13:15:40;10.80;99.90
33699;DHT22;20032;52.436;13.312;2024-02-23T13:18:06;10.60;99.90
33699;DHT22;20032;52.436;13.312;2024-02-23T13:20:32;10.40;99.90
33699;DHT22;20032;52.436;13.312;2024-02-23T13:22:57;10.50;99.90
33699;DHT22;20032;52.436;13.312;2024-02-23T13:25:23;10.60;99.90
33699;DHT22;20032;52.436;13.312;2024-02-23T13:27:48;10.70;99.90
33699;DHT22;20032;52.436;13.312;2024-02-23T13:30:14;10.70;99.90
33699;DHT22;20032;52.436;13.312;2024-02-23T13:32:39;10.80;99.90
33699;DHT22;20032;52.436;13.312;2024-02-23T13:35:05;10.70;99.90
33699;DHT22;20032;52.436;13.312;2024-02-23T13:37:32;10.50;99.90
33699;DHT22;20032;52.436;13.312;2024-02-23T13:39:57;10.50;99.90
33699;DHT22;20032;52.436;13.312;2024-02-23T13:42:23;10.40;99.90
33699;DHT22;20032;52.436;13.312;2024-02-23T13:44:49;10.30;99.90
33699;DHT22;20032;52.436;13.312;2024-02-23T13:47:14;10.50;99.90
33699;DHT22;20032;52.436;13.312;2024-02-23T13:49:40;10.70;99.90
33699;DHT22;20032;52.436;13.312;2024-02-23T13:52:05;10.70;99.90
33699;DHT22;20032;52.436;13.312;2024-02-23T13:54:31;10.60;99.90
33699;DHT22;20032;52.436;13.312;2024-02-23T13:56:57;10.40;99.90
33699;DHT22;20032;52.436;13.312;2024-02-23T13:59:22;10.30;99.90
33699;DHT22;20032;52.436;13.312;2024-02-23T14:01:48;10.30;99.90
33699;DHT22;20032;52.436;13.312;2024-02-23T14:04:13;10.30;99.90
33699;DHT22;20032;52.436;13.312;2024-02-23T14:06:39;10.20;99.90
33699;DHT22;20032;52.436;13.312;2024-02-23T14:09:04;10.30;99.90
33699;DHT22;20032;52.436;13.312;2024-02-23T14:11:30;10.30;99.90
33699;DHT22;20032;52.436;13.312;2024-02-23T14:13:56;10.20;99.90
33699;DHT22;20032;52.436;13.312;2024-02-23T14:16:23;10.10;99.90
33699;DHT22;20032;52.436;13.312;2024-02-23T14:18:49;10.20;99.90
33699;DHT22;20032;52.436;13.312;2024-02-23T14:21:15;10.20;99.90
33699;DHT22;20032;52.436;13.312;2024-02-23T14:23:43;10.10;99.90
33699;DHT22;20032;52.436;13.312;2024-02-23T14:26:09;10.00;99.90
33699;DHT22;20032;52.436;13.312;2024-02-23T14:28:34;9.90;99.90
33699;DHT22;20032;52.436;13.312;2024-02-23T14:31:00;9.80;99.90
33699;DHT22;20032;52.436;13.312;2024-02-23T14:33:26;9.80;99.90
33699;DHT22;20032;52.436;13.312;2024-02-23T14:35:51;9.90;99.90
33699;DHT22;20032;52.436;13.312;2024-02-23T14:38:17;10.00;99.90
33699;DHT22;20032;52.436;13.312;2024-02-23T14:40:43;9.90;99.90
33699;DHT22;20032;52.436;13.312;2024-02-23T14:43:08;10.00;99.90
33699;DHT22;20032;52.436;13.312;2024-02-23T14:45:35;10.00;99.90
33699;DHT22;20032;52.436;13.312;2024-02-23T14:48:01;10.00;99.90
33699;DHT22;20032;52.436;13.312;2024-02-23T14:50:26;10.10;99.90
33699;DHT22;20032;52.436;13.312;2024-02-23T14:52:52;10.10;99.90
33699;DHT22;20032;52.436;13.312;2024-02-23T14:55:17;10.00;99.90
33699;DHT22;20032;52.436;13.312;2024-02-23T14:57:43;9.80;99.90
33699;DHT22;20032;52.436;13.312;2024-02-23T15:02:35;9.90;99.90
33699;DHT22;20032;52.436;13.312;2024-02-23T15:05:01;9.90;99.90
33699;DHT22;20032;52.436;13.312;2024-02-23T15:07:26;9.80;99.90
33699;DHT22;20032;52.436;13.312;2024-02-23T15:09:53;9.80;99.90
33699;DHT22;20032;52.436;13.312;2024-02-23T15:12:19;9.80;99.90
33699;DHT22;20032;52.436;13.312;2024-02-23T15:14:44;9.80;99.90
33699;DHT22;20032;52.436;13.312;2024-02-23T15:17:10;9.90;99.90
33699;DHT22;20032;52.436;13.312;2024-02-23T15:19:35;9.80;99.90
33699;DHT22;20032;52.436;13.312;2024-02-23T15:22:01;9.80;99.90
33699;DHT22;20032;52.436;13.312;2024-02-23T15:24:26;9.70;99.90